Time;durP1;ratioP1;P1;durP2;ratioP2;P2;SDS_P1;SDS_P2;PMS_P1;PMS_P2;Temp;Humidity;BMP_temperature;BMP_pressure;BME280_temperature;BME280_humidity;BME280_pressure;Samples;Min_cycle;Max_cycle;Signal;HPM_P1;HPM_P2
2022/12/14 00:01:36;;;;;;;40.73;20.57;;;-2.00;73.20;;;0.67;56.45;100710.31;5062215;28;20192;-53
2022/12/14 00:04:03;;;;;;;33.73;17.90;;;-2.00;73.30;;;0.63;55.64;100708.91;5061274;28;20589;-53
2022/12/14 00:06:32;;;;;;;35.33;20.17;;;-2.00;73.20;;;0.64;56.61;100701.03;5064020;28;20235;-52
2022/12/14 00:09:03;;;;;;;32.77;19.17;;;-2.00;73.20;;;0.63;56.10;100695.97;5060723;28;20220;-53
2022/12/14 00:11:32;;;;;;;37.00;19.43;;;-2.00;73.30;;;0.64;55.83;100695.03;5065747;28;20280;-54
2022/12/14 00:14:03;;;;;;;35.07;18.30;;;-2.10;73.10;;;0.66;56.08;100688.81;5066681;28;20192;-51
2022/12/14 00:16:33;;;;;;;35.83;17.43;;;-2.10;73.20;;;0.68;55.59;100686.09;5066308;28;20197;-53
2022/12/14 00:19:01;;;;;;;38.50;19.67;;;-2.10;73.40;;;0.69;55.48;100688.56;5065862;28;20204;-55
2022/12/14 00:21:29;;;;;;;33.97;17.63;;;-2.10;73.30;;;0.66;55.53;100682.81;5066320;28;20191;-55
2022/12/14 00:23:58;;;;;;;33.17;18.07;;;-2.00;73.10;;;0.67;56.18;100677.50;5065450;28;20201;-53
2022/12/14 00:26:30;;;;;;;33.37;19.30;;;-2.00;73.10;;;0.64;55.62;100685.50;5064659;28;20220;-52
2022/12/14 00:28:59;;;;;;;35.33;19.10;;;-2.10;72.90;;;0.59;55.61;100686.78;5063234;28;20583;-54
2022/12/14 00:31:28;;;;;;;38.37;18.83;;;-2.10;72.60;;;0.57;55.99;100675.72;5063746;28;20214;-53
2022/12/14 00:33:55;;;;;;;34.60;18.37;;;-2.10;72.60;;;0.61;56.11;100679.72;5063876;28;20194;-52
2022/12/14 00:36:23;;;;;;;33.73;19.07;;;-2.10;73.00;;;0.65;56.19;100673.38;5050667;28;20212;-52
2022/12/14 00:38:50;;;;;;;35.70;18.07;;;-2.10;73.20;;;0.67;55.67;100674.09;5068787;28;20260;-52
2022/12/14 00:41:17;;;;;;;36.30;18.87;;;-2.10;73.00;;;0.70;55.28;100668.69;5060976;28;20199;-52
2022/12/14 00:43:45;;;;;;;38.43;18.93;;;-2.10;72.90;;;0.68;55.26;100668.81;5058566;28;20191;-52
2022/12/14 00:46:16;;;;;;;34.90;18.03;;;-2.10;72.60;;;0.66;54.38;100672.44;5057626;28;20199;-52
2022/12/14 00:48:43;;;;;;;37.97;18.77;;;-2.10;72.40;;;0.63;54.85;100676.09;5057251;28;20262;-52
2022/12/14 00:51:13;;;;;;;32.43;18.07;;;-2.10;72.20;;;0.58;55.50;100679.94;5057940;28;20198;-52
2022/12/14 00:53:43;;;;;;;35.30;18.37;;;-2.20;72.10;;;0.54;55.90;100673.34;5058231;28;20239;-51
2022/12/14 00:56:11;;;;;;;32.73;18.37;;;-2.20;72.40;;;0.59;55.49;100666.06;5057501;28;20201;-51
2022/12/14 00:58:38;;;;;;;35.47;19.10;;;-2.10;73.10;;;0.62;54.70;100671.00;5057836;28;20213;-52
2022/12/14 01:01:12;;;;;;;33.10;18.83;;;-2.10;72.60;;;0.63;54.80;100667.50;5058437;28;20272;-52
2022/12/14 01:03:39;;;;;;;30.43;17.33;;;-2.10;72.50;;;0.65;55.29;100665.59;5058033;28;20187;-50
2022/12/14 01:06:13;;;;;;;31.77;16.83;;;-2.10;72.40;;;0.68;55.84;100660.22;5056925;28;20560;-53
2022/12/14 01:08:40;;;;;;;34.20;17.83;;;-2.10;72.70;;;0.70;54.37;100666.09;5056412;28;20222;-53
2022/12/14 01:11:09;;;;;;;32.07;17.67;;;-2.10;72.20;;;0.67;54.56;100653.38;5056746;28;20187;-53
2022/12/14 01:13:37;;;;;;;32.77;18.10;;;-2.10;72.00;;;0.64;55.13;100661.38;5056997;28;20289;-52
2022/12/14 01:16:11;;;;;;;38.00;18.70;;;-2.10;71.90;;;0.57;55.29;100658.41;5057286;28;20220;-52
2022/12/14 01:18:41;;;;;;;32.57;16.50;;;-2.10;71.80;;;0.57;55.10;100655.00;5056449;28;20211;-50
2022/12/14 01:21:16;;;;;;;34.27;18.20;;;-2.20;72.00;;;0.51;54.87;100652.84;5056703;28;20276;-51
2022/12/14 01:23:45;;;;;;;36.57;19.83;;;-2.20;71.90;;;0.42;54.91;100654.38;5056573;28;20265;-53
2022/12/14 01:26:15;;;;;;;35.40;18.57;;;-2.20;71.90;;;0.38;54.71;100646.94;5056188;28;20194;-52
2022/12/14 01:28:42;;;;;;;32.90;17.80;;;-2.20;72.00;;;0.41;55.36;100657.03;5055679;28;20219;-54
2022/12/14 01:31:15;;;;;;;31.53;17.33;;;-2.30;72.10;;;0.44;54.93;100646.47;5050507;28;20200;-55
2022/12/14 01:33:43;;;;;;;31.30;17.53;;;-2.30;72.50;;;0.54;56.46;100647.47;5052896;28;20204;-52
2022/12/14 01:36:14;;;;;;;32.20;18.20;;;-2.20;73.50;;;0.65;55.30;100650.06;5056076;28;20565;-54
2022/12/14 01:38:41;;;;;;;29.13;16.93;;;-2.10;73.30;;;0.73;55.37;100650.34;5055960;28;20202;-54
2022/12/14 01:41:19;;;;;;;31.07;17.17;;;-2.10;73.10;;;0.75;54.34;100648.47;5056521;28;20592;-50
2022/12/14 01:43:50;;;;;;;33.77;17.90;;;-2.00;72.60;;;0.76;54.33;100647.53;5056690;28;20572;-51
2022/12/14 01:46:27;;;;;;;35.00;18.63;;;-2.00;72.30;;;0.69;54.10;100647.13;5056280;28;20199;-53
2022/12/14 01:49:01;;;;;;;29.40;17.37;;;-2.00;72.40;;;0.55;54.97;100649.09;5055376;28;20215;-55
2022/12/14 01:51:31;;;;;;;32.17;17.67;;;-2.10;71.30;;;0.52;54.61;100644.97;5056029;28;20206;-52
2022/12/14 01:54:04;;;;;;;29.40;17.07;;;-2.10;71.50;;;0.49;54.23;100642.63;5056250;28;20184;-51
2022/12/14 01:56:40;;;;;;;31.67;16.30;;;-2.10;71.30;;;0.48;54.90;100634.94;5056254;28;20231;-56
2022/12/14 01:59:13;;;;;;;29.93;16.53;;;-2.20;71.30;;;0.50;54.76;100643.47;5055547;28;20213;-52
2022/12/14 02:01:42;;;;;;;28.03;15.40;;;-2.20;71.70;;;0.56;55.61;100632.63;5055829;28;20179;-54
2022/12/14 02:04:15;;;;;;;32.60;17.27;;;-2.20;72.90;;;0.64;54.70;100632.91;5055948;28;20199;-52
2022/12/14 02:06:47;;;;;;;35.40;17.97;;;-2.10;72.60;;;0.70;54.89;100632.44;5071347;28;20190;-53
2022/12/14 02:09:21;;;;;;;33.70;17.07;;;-2.10;72.30;;;0.77;55.01;100633.63;5055022;28;20293;-55
2022/12/14 02:12:01;;;;;;;30.80;16.83;;;-2.00;72.40;;;0.84;54.65;100629.63;5055494;28;20234;-53
2022/12/14 02:14:29;;;;;;;30.73;15.83;;;-2.00;72.80;;;0.94;54.81;100619.41;5055709;28;20198;-52
2022/12/14 02:16:57;;;;;;;26.73;14.93;;;-1.90;72.70;;;1.02;55.14;100623.06;5055314;28;20202;-54
2022/12/14 02:19:24;;;;;;;30.17;17.60;;;-1.80;72.40;;;1.09;53.95;100616.50;5055062;28;20218;-54
2022/12/14 02:22:17;;;;;;;27.80;15.57;;;-1.80;72.00;;;1.14;54.66;100610.97;5055761;28;20262;-54
2022/12/14 02:25:23;;;;;;;29.90;16.63;;;-1.70;72.50;;;1.13;54.26;100604.94;5055343;28;20555;-53
2022/12/14 02:28:26;;;;;;;31.33;16.60;;;-1.70;71.40;;;1.17;53.78;100611.53;5055524;28;20198;-53
2022/12/14 02:31:05;;;;;;;28.70;16.10;;;-1.60;71.30;;;1.19;53.29;100595.84;5055520;28;20214;-54
2022/12/14 02:33:48;;;;;;;30.80;17.00;;;-1.60;71.10;;;1.16;52.92;100594.34;5055391;28;20601;-52
2022/12/14 02:36:28;;;;;;;29.77;16.93;;;-1.50;70.30;;;1.15;53.12;100592.69;5055093;28;20214;-52
2022/12/14 02:39:13;;;;;;;29.73;16.07;;;-1.50;69.90;;;1.12;53.01;100592.91;5053399;28;20298;-53
2022/12/14 02:41:53;;;;;;;30.23;16.50;;;-1.50;70.10;;;1.09;53.10;100582.81;5054535;28;20261;-55
2022/12/14 02:44:33;;;;;;;27.97;15.53;;;-1.60;70.20;;;1.15;53.29;100582.31;5054708;28;20626;-53
2022/12/14 02:47:13;;;;;;;31.03;16.30;;;-1.50;70.50;;;1.25;54.18;100575.50;5056672;28;20586;-52
2022/12/14 02:50:01;;;;;;;29.30;16.10;;;-1.50;70.50;;;1.24;52.77;100575.59;5056315;28;20257;-53
2022/12/14 02:52:40;;;;;;;29.00;15.07;;;-1.40;69.50;;;1.21;52.88;100570.66;5054870;28;20201;-54
2022/12/14 02:55:17;;;;;;;26.57;15.40;;;-1.40;69.30;;;1.23;53.31;100564.44;5054664;28;20194;-54
2022/12/14 02:57:52;;;;;;;26.63;15.70;;;-1.40;69.30;;;1.26;52.92;100573.72;5054721;28;20504;-52
2022/12/14 03:00:19;;;;;;;32.10;15.70;;;-1.40;69.30;;;1.25;51.72;100565.13;5053247;28;20209;-55
2022/12/14 03:02:50;;;;;;;26.83;15.50;;;-1.50;68.80;;;1.14;52.03;100559.13;5054507;28;20195;-51
2022/12/14 03:05:17;;;;;;;24.93;14.60;;;-1.50;67.90;;;1.05;52.90;100563.25;5053005;28;20192;-54
2022/12/14 03:07:49;;;;;;;27.40;15.80;;;-1.60;67.90;;;0.95;52.80;100570.06;5054379;28;20277;-52
2022/12/14 03:10:35;;;;;;;30.03;15.97;;;-1.70;68.00;;;0.87;52.80;100566.41;5053991;28;20249;-53
2022/12/14 03:13:14;;;;;;;27.97;15.83;;;-1.70;68.30;;;0.79;53.19;100561.81;5054546;28;20189;-53
2022/12/14 03:15:45;;;;;;;27.63;15.97;;;-1.80;68.50;;;0.73;52.86;100561.47;5063961;28;20191;-53
2022/12/14 03:18:20;;;;;;;25.37;15.20;;;-1.90;68.50;;;0.60;53.22;100558.97;5053963;28;20188;-51
2022/12/14 03:20:53;;;;;;;27.27;15.10;;;-2.00;68.50;;;0.54;53.65;100549.09;5054219;28;20174;-53
2022/12/14 03:23:28;;;;;;;29.50;15.13;;;-2.10;68.80;;;0.50;53.31;100552.88;5054248;28;20200;-53
2022/12/14 03:26:08;;;;;;;27.80;15.40;;;-2.10;69.10;;;0.44;53.89;100548.13;5053962;28;20183;-52
2022/12/14 03:28:44;;;;;;;28.63;16.30;;;-2.20;69.20;;;0.39;53.70;100550.22;5053424;28;20211;-52
2022/12/14 03:31:19;;;;;;;29.70;15.70;;;-2.20;69.30;;;0.35;53.26;100541.88;5034023;28;20661;-52
2022/12/14 03:33:53;;;;;;;26.33;15.07;;;-2.30;69.40;;;0.35;53.21;100543.66;5034212;28;20722;-51
2022/12/14 03:36:29;;;;;;;28.03;16.37;;;-2.30;69.80;;;0.34;53.56;100536.81;5036070;28;20203;-53
2022/12/14 03:39:01;;;;;;;27.73;14.90;;;-2.40;69.80;;;0.37;54.48;100531.41;5053063;28;20224;-53
2022/12/14 03:41:36;;;;;;;24.47;14.60;;;-2.30;70.40;;;0.44;53.86;100527.44;5053965;28;20180;-53
2022/12/14 03:44:22;;;;;;;24.57;14.77;;;-2.30;71.10;;;0.53;53.56;100524.97;5053914;28;20270;-52
2022/12/14 03:46:57;;;;;;;25.27;14.43;;;-2.30;71.00;;;0.60;53.92;100514.97;5053700;28;20221;-53
2022/12/14 03:49:47;;;;;;;27.90;15.50;;;-2.20;70.70;;;0.61;53.24;100516.63;5053072;28;20212;-50
2022/12/14 03:52:25;;;;;;;24.67;13.80;;;-2.20;70.20;;;0.61;53.67;100508.84;5053667;28;20205;-55
2022/12/14 03:55:05;;;;;;;23.97;13.90;;;-2.10;69.80;;;0.58;53.09;100514.25;5053545;28;20203;-53
2022/12/14 03:57:49;;;;;;;27.67;15.03;;;-2.10;69.70;;;0.52;53.14;100509.56;5054123;28;20195;-52
2022/12/14 04:00:21;;;;;;;26.67;15.60;;;-2.20;69.10;;;0.50;53.13;100507.06;5053161;28;20763;-55
2022/12/14 04:02:59;;;;;;;28.23;14.50;;;-2.20;69.30;;;0.49;53.49;100500.25;5053627;28;20218;-52
2022/12/14 04:05:38;;;;;;;23.10;13.53;;;-2.20;69.60;;;0.53;53.48;100500.84;5053689;28;20237;-52
2022/12/14 04:08:29;;;;;;;23.17;15.03;;;-2.20;69.90;;;0.56;53.29;100501.44;5053461;28;20199;-54
2022/12/14 04:19:43;;;;;;;25.13;14.03;;;-2.20;68.20;;;0.30;52.62;100483.66;5059961;28;20231;-55
2022/12/14 04:22:24;;;;;;;24.27;14.00;;;-2.30;69.30;;;0.32;53.83;100481.75;5060004;28;20215;-52
2022/12/14 04:27:50;;;;;;;21.63;13.77;;;-2.30;69.10;;;0.32;52.59;100474.00;5060865;28;20196;-56
2022/12/14 04:30:18;;;;;;;24.17;13.83;;;-2.30;69.00;;;0.31;53.48;100469.78;5061698;28;20667;-55
2022/12/14 04:32:50;;;;;;;20.87;13.10;;;-2.30;69.10;;;0.34;52.74;100469.53;5062291;28;20222;-53
2022/12/14 04:35:24;;;;;;;24.53;13.83;;;-2.40;69.10;;;0.36;53.11;100467.66;5060605;28;20258;-57
2022/12/14 04:38:00;;;;;;;24.17;13.60;;;-2.30;69.30;;;0.35;52.60;100468.59;5061423;28;20623;-52
2022/12/14 04:40:32;;;;;;;23.13;14.23;;;-2.40;69.30;;;0.33;53.68;100468.72;5054165;28;20215;-54
2022/12/14 04:43:08;;;;;;;23.33;13.47;;;-2.40;69.40;;;0.28;53.16;100463.06;5053790;28;20189;-52
2022/12/14 04:45:42;;;;;;;22.73;14.50;;;-2.40;69.20;;;0.27;53.43;100463.19;5053738;28;20248;-52
2022/12/14 04:48:23;;;;;;;25.50;14.40;;;-2.40;69.40;;;0.23;52.82;100462.59;5053847;28;20579;-55
2022/12/14 04:50:58;;;;;;;28.70;15.93;;;-2.50;69.30;;;0.17;53.59;100462.25;5053406;28;20217;-51
2022/12/14 04:53:33;;;;;;;23.67;13.73;;;-2.50;69.30;;;0.11;53.65;100467.84;5053990;28;20186;-56
2022/12/14 04:56:09;;;;;;;21.33;13.23;;;-2.50;69.50;;;0.08;53.60;100462.91;5053243;28;20186;-52
2022/12/14 04:58:39;;;;;;;23.60;14.73;;;-2.60;69.50;;;0.08;54.05;100463.72;5053707;28;20238;-53
2022/12/14 05:01:31;;;;;;;22.53;12.67;;;-2.60;69.90;;;0.10;53.36;100451.50;5053155;28;20186;-52
2022/12/14 05:04:12;;;;;;;21.30;13.37;;;-2.60;70.20;;;0.15;54.55;100456.34;5053632;28;20686;-54
2022/12/14 05:06:53;;;;;;;24.33;14.50;;;-2.60;70.40;;;0.24;54.02;100458.25;5053288;28;20230;-53
2022/12/14 05:09:28;;;;;;;26.37;15.37;;;-2.50;71.60;;;0.33;53.90;100462.72;5052692;28;20304;-53
2022/12/14 05:12:06;;;;;;;23.43;14.03;;;-2.50;70.70;;;0.29;52.75;100458.69;5052994;28;20647;-53
2022/12/14 05:14:41;;;;;;;25.33;14.40;;;-2.50;69.80;;;0.28;53.56;100459.66;5053373;28;20689;-52
2022/12/14 05:17:08;;;;;;;24.70;13.50;;;-2.50;69.60;;;0.32;54.25;100461.06;5053320;28;20207;-52
2022/12/14 05:19:42;;;;;;;23.87;14.67;;;-2.40;70.20;;;0.39;53.54;100451.91;5053176;28;20240;-52
2022/12/14 05:22:16;;;;;;;23.03;13.20;;;-2.40;70.30;;;0.42;52.70;100446.50;5054676;28;20182;-53
2022/12/14 05:24:45;;;;;;;25.97;13.73;;;-2.40;70.10;;;0.41;52.42;100439.66;5056985;28;20210;-52
2022/12/14 05:27:12;;;;;;;22.00;14.30;;;-2.40;69.60;;;0.42;52.57;100451.66;5057128;28;20265;-51
2022/12/14 05:29:39;;;;;;;23.37;14.10;;;-2.40;69.60;;;0.41;53.48;100450.00;5056409;28;20222;-55
2022/12/14 05:32:09;;;;;;;23.87;13.10;;;-2.40;69.60;;;0.37;53.32;100448.59;5056994;28;20198;-53
2022/12/14 05:34:37;;;;;;;23.13;13.87;;;-2.40;69.40;;;0.34;52.57;100448.84;5056643;28;20263;-52
2022/12/14 05:37:04;;;;;;;26.80;14.53;;;-2.50;69.20;;;0.28;53.18;100444.13;5056840;28;20639;-56
2022/12/14 05:39:31;;;;;;;24.63;14.13;;;-2.50;69.10;;;0.23;52.43;100451.41;5055871;28;20218;-51
2022/12/14 05:42:02;;;;;;;25.50;15.23;;;-2.50;69.10;;;0.22;53.74;100445.41;5056075;28;20189;-53
2022/12/14 05:44:30;;;;;;;21.27;13.43;;;-2.50;69.80;;;0.27;53.32;100443.31;5056182;28;20252;-52
2022/12/14 05:46:58;;;;;;;20.47;13.30;;;-2.60;70.10;;;0.32;53.41;100440.38;5056471;28;20200;-53
2022/12/14 05:49:25;;;;;;;23.20;13.43;;;-2.50;69.80;;;0.28;53.23;100431.19;5056269;28;20220;-52
2022/12/14 05:51:52;;;;;;;19.67;13.03;;;-2.50;69.40;;;0.27;52.68;100426.94;5056164;28;20299;-53
2022/12/14 05:54:19;;;;;;;22.13;13.63;;;-2.60;69.70;;;0.30;53.19;100426.72;5056334;28;20199;-55
2022/12/14 05:56:46;;;;;;;20.70;12.43;;;-2.50;70.40;;;0.36;53.55;100423.66;5056283;28;20187;-56
2022/12/14 05:59:15;;;;;;;24.07;14.47;;;-2.50;70.70;;;0.46;53.00;100412.50;5055879;28;20751;-52
2022/12/14 06:01:43;;;;;;;26.53;13.67;;;-2.40;70.60;;;0.52;52.61;100416.38;5056930;28;20214;-53
2022/12/14 06:04:16;;;;;;;21.40;12.60;;;-2.30;70.20;;;0.56;52.46;100417.78;5057077;28;20175;-54
2022/12/14 06:06:44;;;;;;;20.80;13.00;;;-2.30;69.70;;;0.55;52.36;100411.78;5056380;28;20218;-55
2022/12/14 06:09:14;;;;;;;22.33;13.33;;;-2.30;69.40;;;0.49;51.58;100411.44;5055458;28;20306;-56
2022/12/14 06:11:44;;;;;;;24.00;14.00;;;-2.30;68.70;;;0.41;51.93;100403.44;5055242;28;20227;-54
2022/12/14 06:14:12;;;;;;;21.47;12.80;;;-2.40;68.40;;;0.33;52.90;100403.22;5055630;28;20212;-54
2022/12/14 06:16:43;;;;;;;23.20;13.27;;;-2.40;68.50;;;0.31;52.28;100402.50;5055831;28;20644;-53
2022/12/14 06:19:12;;;;;;;23.03;14.53;;;-2.40;68.80;;;0.32;53.11;100406.72;5055697;28;20226;-54
2022/12/14 06:21:42;;;;;;;19.47;12.73;;;-2.40;69.00;;;0.30;53.11;100400.84;5056005;28;20271;-55
2022/12/14 06:24:11;;;;;;;23.27;13.90;;;-2.40;68.80;;;0.25;53.08;100403.78;5057442;28;20278;-54
2022/12/14 06:26:41;;;;;;;21.10;12.67;;;-2.50;68.50;;;0.22;53.12;100405.78;5055367;28;20198;-53
2022/12/14 06:29:15;;;;;;;26.27;14.23;;;-2.50;68.50;;;0.19;53.22;100403.44;5056031;28;20210;-53
2022/12/14 06:31:44;;;;;;;22.93;13.40;;;-2.50;68.70;;;0.22;53.61;100408.38;5056115;28;20220;-54
2022/12/14 06:34:16;;;;;;;25.23;14.20;;;-2.50;69.10;;;0.26;52.24;100409.78;5055141;28;20247;-53
2022/12/14 06:36:45;;;;;;;23.07;13.53;;;-2.50;69.00;;;0.28;53.31;100408.75;5056695;28;20248;-55
2022/12/14 06:39:16;;;;;;;20.03;12.50;;;-2.50;69.60;;;0.34;52.64;100410.00;5055455;28;20210;-54
2022/12/14 06:41:43;;;;;;;23.20;13.70;;;-2.50;69.50;;;0.36;52.98;100411.53;5056099;28;20308;-56
2022/12/14 06:44:13;;;;;;;23.33;13.07;;;-2.50;69.10;;;0.38;53.05;100404.47;5055883;28;20659;-53
2022/12/14 06:46:41;;;;;;;24.60;14.30;;;-2.50;69.20;;;0.43;52.15;100411.88;5055152;28;20198;-52
2022/12/14 06:49:14;;;;;;;24.57;13.63;;;-2.40;69.60;;;0.46;52.16;100412.50;5054991;28;20277;-53
2022/12/14 06:51:42;;;;;;;23.93;14.30;;;-2.40;69.30;;;0.50;53.30;100407.91;5055150;28;20290;-52
2022/12/14 06:54:11;;;;;;;22.43;13.47;;;-2.40;69.60;;;0.55;52.84;100405.78;5055596;28;20187;-53
2022/12/14 06:56:39;;;;;;;24.33;13.87;;;-2.30;69.50;;;0.56;52.57;100407.44;5055863;28;20205;-52
2022/12/14 06:59:07;;;;;;;23.13;14.23;;;-2.30;69.10;;;0.55;52.00;100409.19;5054745;28;20222;-51
2022/12/14 07:01:36;;;;;;;21.23;13.20;;;-2.30;68.70;;;0.55;52.08;100400.59;5055743;28;20192;-55
2022/12/14 07:04:04;;;;;;;22.37;13.20;;;-2.20;68.60;;;0.56;51.94;100403.09;5054883;28;20203;-53
2022/12/14 07:06:36;;;;;;;22.13;13.23;;;-2.20;68.50;;;0.57;52.70;100398.72;5055026;28;20192;-53
2022/12/14 07:09:06;;;;;;;19.67;12.57;;;-2.20;68.50;;;0.56;51.91;100391.91;5054753;28;20222;-53
2022/12/14 07:11:33;;;;;;;20.67;13.20;;;-2.20;68.20;;;0.56;52.49;100391.91;5054714;28;20218;-54
2022/12/14 07:14:04;;;;;;;23.00;13.30;;;-2.20;68.20;;;0.56;52.30;100390.13;5055490;28;20203;-53
2022/12/14 07:16:33;;;;;;;23.77;14.37;;;-2.20;67.90;;;0.54;51.37;100386.84;5055773;28;20194;-54
2022/12/14 07:19:00;;;;;;;21.17;13.17;;;-2.30;67.60;;;0.53;51.46;100386.94;5055173;28;20207;-53
2022/12/14 07:21:28;;;;;;;20.63;13.00;;;-2.30;67.70;;;0.52;52.39;100385.31;5055921;28;20228;-52
2022/12/14 07:24:02;;;;;;;22.07;12.87;;;-2.30;67.70;;;0.54;52.75;100388.63;5055330;28;20199;-54
2022/12/14 07:26:30;;;;;;;21.47;13.63;;;-2.30;68.10;;;0.58;52.07;100382.25;5056817;28;20180;-53
2022/12/14 07:29:01;;;;;;;24.10;15.70;;;-2.30;68.20;;;0.63;52.21;100387.88;5057096;28;20257;-53
2022/12/14 07:31:28;;;;;;;22.50;13.17;;;-2.20;68.30;;;0.68;52.26;100380.59;5059146;28;20222;-52
2022/12/14 07:33:59;;;;;;;26.87;14.73;;;-2.20;67.70;;;0.68;51.13;100378.00;5067000;28;20262;-54
2022/12/14 07:36:28;;;;;;;23.27;14.07;;;-2.10;67.30;;;0.68;51.69;100378.00;5064474;28;20243;-55
2022/12/14 07:38:57;;;;;;;21.37;13.77;;;-2.10;67.10;;;0.68;51.76;100375.41;5059231;28;20216;-52
2022/12/14 07:41:28;;;;;;;26.40;13.53;;;-2.10;66.80;;;0.67;50.98;100368.56;5055092;28;20211;-53
2022/12/14 07:43:56;;;;;;;22.10;13.97;;;-2.20;66.50;;;0.67;51.08;100376.34;5054769;28;20180;-55
2022/12/14 07:46:26;;;;;;;21.47;13.03;;;-2.20;66.70;;;0.69;50.81;100374.44;5054880;28;20203;-52
2022/12/14 07:48:57;;;;;;;24.83;13.87;;;-2.20;66.60;;;0.68;51.17;100376.25;5054005;28;20221;-53
2022/12/14 07:51:28;;;;;;;22.33;14.20;;;-2.20;66.40;;;0.66;50.64;100367.78;5054186;28;20586;-53
2022/12/14 07:53:58;;;;;;;21.13;13.60;;;-2.20;66.10;;;0.65;50.50;100373.88;5053517;28;20180;-54
2022/12/14 07:56:29;;;;;;;24.97;14.43;;;-2.20;66.00;;;0.63;50.75;100368.00;5052378;28;20206;-52
2022/12/14 07:58:58;;;;;;;22.73;14.07;;;-2.20;66.70;;;0.65;51.34;100370.47;5053246;28;20206;-53
2022/12/14 08:01:28;;;;;;;20.93;13.67;;;-2.20;66.80;;;0.71;51.03;100375.19;5059285;28;20621;-56
2022/12/14 08:03:58;;;;;;;23.63;14.00;;;-2.10;67.00;;;0.78;50.91;100365.97;5061461;28;20518;-55
2022/12/14 08:06:28;;;;;;;24.53;13.73;;;-2.00;66.30;;;0.85;51.07;100377.50;5061422;28;20207;-55
2022/12/14 08:08:58;;;;;;;23.67;14.30;;;-2.00;66.20;;;0.91;50.28;100376.16;5059481;28;20207;-51
2022/12/14 08:11:25;;;;;;;26.47;14.47;;;-1.90;65.50;;;0.95;50.31;100377.59;5053911;28;20217;-53
2022/12/14 08:13:53;;;;;;;25.33;14.37;;;-1.90;65.20;;;0.99;50.74;100374.63;5054187;28;20193;-52
2022/12/14 08:16:22;;;;;;;26.13;13.63;;;-1.80;65.90;;;1.08;49.88;100367.88;5054119;28;20205;-52
2022/12/14 08:18:51;;;;;;;21.77;13.83;;;-1.70;65.10;;;1.12;50.40;100375.28;5054241;28;20228;-52
2022/12/14 08:21:20;;;;;;;26.03;14.60;;;-1.70;64.90;;;1.18;49.17;100379.97;5054061;28;20200;-53
2022/12/14 08:23:49;;;;;;;22.53;13.90;;;-1.60;64.40;;;1.18;48.88;100374.78;5053456;28;20201;-54
2022/12/14 08:26:19;;;;;;;20.13;13.87;;;-1.60;64.10;;;1.16;49.16;100371.50;5052167;28;20222;-52
2022/12/14 08:28:47;;;;;;;18.10;12.07;;;-1.60;64.20;;;1.16;49.61;100376.69;5053407;28;20210;-53
2022/12/14 08:31:17;;;;;;;25.53;14.37;;;-1.70;64.20;;;1.15;48.96;100375.03;5053563;28;20210;-53
2022/12/14 08:33:46;;;;;;;23.87;13.93;;;-1.70;64.00;;;1.14;49.50;100377.75;5053525;28;20542;-54
2022/12/14 08:36:17;;;;;;;24.00;13.80;;;-1.70;64.50;;;1.19;49.85;100381.59;5053350;28;20223;-56
2022/12/14 08:38:44;;;;;;;20.27;13.20;;;-1.60;64.40;;;1.24;49.57;100376.88;5052910;28;20219;-53
2022/12/14 08:41:13;;;;;;;22.43;14.27;;;-1.60;64.70;;;1.26;48.98;100367.19;5053507;28;20278;-55
2022/12/14 08:43:42;;;;;;;20.97;12.80;;;-1.60;64.00;;;1.25;48.94;100370.75;5054315;28;20213;-53
2022/12/14 08:46:10;;;;;;;23.53;12.90;;;-1.60;63.90;;;1.24;49.59;100363.91;5057609;28;20210;-56
2022/12/14 08:48:37;;;;;;;19.57;13.20;;;-1.60;64.10;;;1.28;50.08;100365.31;5062410;28;20301;-54
2022/12/14 08:51:07;;;;;;;21.70;12.37;;;-1.50;64.50;;;1.34;49.57;100362.22;5063589;28;20234;-55
2022/12/14 08:53:37;;;;;;;25.10;12.87;;;-1.50;64.10;;;1.36;48.77;100355.16;5060152;28;20175;-54
2022/12/14 08:56:08;;;;;;;23.17;13.10;;;-1.50;63.50;;;1.36;48.36;100362.94;5058996;28;20188;-52
2022/12/14 08:58:37;;;;;;;20.40;13.60;;;-1.50;63.70;;;1.34;48.77;100354.47;5053100;28;20314;-54
2022/12/14 09:01:12;;;;;;;22.83;13.63;;;-1.50;63.50;;;1.34;49.16;100351.88;5048905;28;20278;-54
2022/12/14 09:03:43;;;;;;;23.53;12.83;;;-1.50;64.00;;;1.35;49.33;100355.28;5052768;28;20200;-52
2022/12/14 09:06:36;;;;;;;23.33;12.67;;;-1.50;64.10;;;1.36;48.61;100352.56;5061875;28;20196;-54
2022/12/14 09:09:04;;;;;;;25.93;14.10;;;-1.50;64.10;;;1.40;49.57;100341.94;5037599;28;20215;-53
2022/12/14 09:11:39;;;;;;;19.50;13.30;;;-1.40;64.50;;;1.44;49.72;100349.34;5046129;28;20241;-52
2022/12/14 09:14:08;;;;;;;20.33;12.37;;;-1.40;64.60;;;1.47;48.88;100348.28;5059523;28;20254;-53
2022/12/14 09:16:38;;;;;;;20.27;13.70;;;-1.40;64.20;;;1.45;49.31;100345.78;5058048;28;20248;-52
2022/12/14 09:19:14;;;;;;;20.47;12.97;;;-1.40;64.20;;;1.34;49.49;100348.44;5057943;28;20213;-54
2022/12/14 09:21:42;;;;;;;20.50;13.17;;;-1.40;63.60;;;1.27;48.61;100337.75;5057197;28;20189;-54
2022/12/14 09:24:09;;;;;;;20.63;13.23;;;-1.50;63.60;;;1.13;50.06;100334.66;5056876;28;20215;-54
2022/12/14 09:26:36;;;;;;;20.27;12.33;;;-1.50;63.90;;;1.06;49.74;100333.50;5056516;28;20186;-54
2022/12/14 09:29:03;;;;;;;20.17;12.83;;;-1.60;64.10;;;1.00;49.48;100334.81;5056325;28;20289;-51
2022/12/14 09:31:30;;;;;;;22.33;12.60;;;-1.60;64.30;;;1.00;50.00;100334.81;5056101;28;20221;-55
2022/12/14 09:33:59;;;;;;;20.73;12.80;;;-1.60;64.80;;;0.96;49.62;100328.25;5056302;28;20206;-53
2022/12/14 09:36:27;;;;;;;20.63;11.90;;;-1.70;64.70;;;1.06;50.71;100331.75;5055738;28;20308;-55
2022/12/14 09:38:56;;;;;;;17.37;11.17;;;-1.60;65.40;;;1.19;49.98;100329.78;5056242;28;20215;-54
2022/12/14 09:41:48;;;;;;;20.93;11.90;;;-1.60;65.80;;;1.24;49.58;100337.19;5056539;28;20635;-53
2022/12/14 09:44:33;;;;;;;22.03;12.97;;;-1.60;65.20;;;1.22;49.26;100333.91;5056536;28;20201;-54
2022/12/14 09:47:10;;;;;;;18.23;12.47;;;-1.50;64.80;;;1.29;50.90;100330.69;5055553;28;20220;-51
2022/12/14 09:49:46;;;;;;;20.10;13.03;;;-1.50;65.30;;;1.42;49.86;100329.69;5041710;28;20211;-55
2022/12/14 09:52:19;;;;;;;20.40;12.33;;;-1.40;65.70;;;1.46;50.23;100328.47;5052882;28;20222;-52
2022/12/14 09:54:47;;;;;;;22.77;12.17;;;-1.40;65.20;;;1.49;50.13;100325.63;5054586;28;20566;-53
2022/12/14 09:57:38;;;;;;;21.13;12.80;;;-1.30;65.00;;;1.53;50.19;100321.81;5050966;28;20254;-52
2022/12/14 10:00:14;;;;;;;21.00;12.60;;;-1.30;65.30;;;1.61;49.91;100315.06;5046893;28;20586;-53
2022/12/14 10:03:01;;;;;;;18.50;11.07;;;-1.30;65.50;;;1.63;49.16;100314.94;5055150;28;20181;-55
2022/12/14 10:05:53;;;;;;;18.30;10.83;;;-1.20;65.10;;;1.70;49.50;100318.66;5055288;28;20186;-52
2022/12/14 10:08:28;;;;;;;21.63;13.07;;;-1.20;65.10;;;1.89;49.42;100318.75;5054977;28;20203;-53
2022/12/14 10:11:06;;;;;;;17.00;11.30;;;-1.10;65.10;;;2.22;48.92;100310.69;5054198;28;20198;-55
2022/12/14 10:13:47;;;;;;;22.60;14.10;;;-1.00;65.50;;;2.49;49.04;100297.09;5038536;28;20191;-54
2022/12/14 10:16:30;;;;;;;19.00;11.30;;;-0.80;65.80;;;2.59;48.37;100303.13;5053142;28;20217;-56
2022/12/14 10:19:26;;;;;;;20.40;12.50;;;-0.70;65.00;;;2.63;48.42;100302.72;5042485;28;20226;-54
2022/12/14 10:22:02;;;;;;;19.27;11.57;;;-0.50;65.10;;;2.72;48.25;100298.50;5035980;28;20343;-51
2022/12/14 10:24:35;;;;;;;17.87;11.30;;;-0.40;65.00;;;2.74;48.16;100297.41;5044139;28;20199;-54
2022/12/14 10:27:08;;;;;;;21.30;11.43;;;-0.30;64.40;;;2.73;47.73;100289.75;5050670;28;20203;-54
2022/12/14 10:29:45;;;;;;;16.17;10.93;;;-0.30;63.70;;;2.73;47.96;100290.56;5048962;28;20244;-54
2022/12/14 10:32:21;;;;;;;18.80;11.93;;;-0.20;63.70;;;2.72;47.87;100278.53;5043644;28;20224;-54
2022/12/14 10:34:50;;;;;;;20.03;12.53;;;-0.20;63.60;;;2.72;48.35;100277.72;5048637;28;20209;-54
2022/12/14 10:37:38;;;;;;;22.53;13.60;;;-0.20;63.50;;;2.70;48.23;100283.06;5044554;28;20235;-52
2022/12/14 10:40:25;;;;;;;21.00;12.93;;;-0.20;63.70;;;2.68;48.50;100271.97;5047782;28;20231;-56